Time;durP1;ratioP1;P1;durP2;ratioP2;P2;SDS_P1;SDS_P2;PMS_P1;PMS_P2;Temp;Humidity;BMP_temperature;BMP_pressure;BME280_temperature;BME280_humidity;BME280_pressure;Samples;Min_cycle;Max_cycle;Signal;HPM_P1;HPM_P2
2022/10/29 00:02:04;;;;;;;12.67;8.30;;;18.10;99.90;;;;;;5052110;28;20182;-74
2022/10/29 00:04:29;;;;;;;17.83;8.43;;;18.10;99.90;;;;;;5052641;28;20183;-75
2022/10/29 00:06:55;;;;;;;24.70;8.57;;;18.00;99.90;;;;;;5052761;28;20182;-75
2022/10/29 00:09:20;;;;;;;20.30;9.30;;;18.00;99.90;;;;;;5052579;28;20665;-75
2022/10/29 00:11:46;;;;;;;13.60;7.80;;;18.00;99.90;;;;;;5052444;28;20672;-74
2022/10/29 00:14:11;;;;;;;22.10;8.87;;;18.00;99.90;;;;;;5052539;28;20175;-75
2022/10/29 00:16:38;;;;;;;20.30;8.67;;;18.00;99.90;;;;;;5052450;28;20186;-75
2022/10/29 00:19:04;;;;;;;13.37;7.43;;;18.00;99.90;;;;;;5052363;28;20175;-75
2022/10/29 00:21:30;;;;;;;16.83;7.83;;;18.00;99.90;;;;;;5052330;28;20430;-74
2022/10/29 00:23:57;;;;;;;27.37;9.30;;;18.00;99.90;;;;;;5052317;28;20437;-75
2022/10/29 00:26:23;;;;;;;21.40;8.47;;;18.00;99.90;;;;;;5052228;28;20455;-75
2022/10/29 00:28:54;;;;;;;21.40;8.67;;;18.00;99.90;;;;;;5052385;28;20426;-74
2022/10/29 00:31:23;;;;;;;15.43;8.17;;;18.10;99.90;;;;;;5052230;28;20421;-74
2022/10/29 00:33:49;;;;;;;23.77;8.60;;;18.10;99.90;;;;;;5052151;28;20469;-74
2022/10/29 00:36:18;;;;;;;14.43;8.20;;;18.10;99.90;;;;;;5052186;28;20421;-76
2022/10/29 00:38:44;;;;;;;25.73;7.63;;;18.10;99.90;;;;;;5052010;28;20441;-76
2022/10/29 00:41:12;;;;;;;17.27;9.00;;;18.10;99.90;;;;;;5052107;28;20422;-75
2022/10/29 00:43:45;;;;;;;19.10;8.80;;;18.10;99.90;;;;;;5052323;28;20796;-82
2022/10/29 00:46:15;;;;;;;16.80;8.80;;;18.10;99.90;;;;;;5051639;28;20433;-82
2022/10/29 00:48:48;;;;;;;15.90;7.43;;;18.10;99.90;;;;;;5049443;28;20433;-80
2022/10/29 00:51:15;;;;;;;15.40;7.97;;;18.10;99.90;;;;;;5051344;28;20448;-81
2022/10/29 00:53:45;;;;;;;15.57;8.17;;;18.10;99.90;;;;;;5051371;28;20473;-81
2022/10/29 00:56:11;;;;;;;26.33;8.37;;;18.10;99.90;;;;;;5051434;28;20512;-82
2022/10/29 00:58:38;;;;;;;15.60;9.30;;;18.10;99.90;;;;;;5051573;28;20437;-82
2022/10/29 01:01:03;;;;;;;13.63;8.40;;;18.10;99.90;;;;;;5051322;28;20429;-79
2022/10/29 01:03:29;;;;;;;21.10;8.77;;;18.10;99.90;;;;;;5051420;28;20438;-78
2022/10/29 01:05:55;;;;;;;14.33;8.83;;;18.10;99.90;;;;;;5051559;28;20175;-81
2022/10/29 01:08:21;;;;;;;14.23;7.90;;;18.20;99.90;;;;;;5051634;28;20250;-78
2022/10/29 01:10:58;;;;;;;16.70;7.43;;;18.20;99.90;;;;;;5050336;28;20172;-80
2022/10/29 01:13:56;;;;;;;19.73;7.93;;;18.20;99.90;;;;;;5050628;28;20829;-81
2022/10/29 01:16:49;;;;;;;23.40;8.50;;;18.20;99.90;;;;;;5055985;28;20926;-82
2022/10/29 01:20:10;;;;;;;22.00;8.97;;;18.10;99.90;;;;;;5052954;28;20437;-85
2022/10/29 01:22:59;;;;;;;19.23;8.73;;;18.10;99.90;;;;;;5054130;28;20948;-80
2022/10/29 01:25:41;;;;;;;20.47;9.40;;;18.10;99.90;;;;;;5055519;28;20436;-79
2022/10/29 01:28:17;;;;;;;12.77;7.80;;;18.10;99.90;;;;;;5055594;28;20421;-78
2022/10/29 01:31:12;;;;;;;15.70;7.93;;;18.10;99.90;;;;;;5055528;28;20826;-79
2022/10/29 04:30:17;;;;;;;17.03;9.37;;;16.90;99.90;;;;;;6060775;23;21323;-77
2022/10/29 04:32:43;;;;;;;20.00;10.43;;;16.90;99.90;;;;;;4973402;28;20569;-78
2022/10/29 04:35:08;;;;;;;22.03;7.53;;;17.00;99.90;;;;;;4974631;28;20170;-76
2022/10/29 04:37:34;;;;;;;14.97;9.93;;;17.00;99.90;;;;;;4974332;28;20178;-76
2022/10/29 04:39:59;;;;;;;24.87;9.13;;;16.90;99.90;;;;;;4974543;28;20542;-79
2022/10/29 04:42:25;;;;;;;17.47;9.10;;;16.90;99.90;;;;;;4974208;28;20189;-79
2022/10/29 04:44:50;;;;;;;14.37;8.33;;;16.90;99.90;;;;;;4974462;28;20174;-81
2022/10/29 04:47:16;;;;;;;24.07;10.90;;;16.90;99.90;;;;;;4974179;28;20174;-80
2022/10/29 04:49:41;;;;;;;20.37;10.00;;;16.90;99.90;;;;;;4974539;28;20173;-81
2022/10/29 04:52:07;;;;;;;16.07;9.03;;;16.80;99.90;;;;;;4974342;28;20213;-81
2022/10/29 04:54:32;;;;;;;14.03;9.40;;;16.80;99.90;;;;;;4974400;28;20256;-81
2022/10/29 04:56:58;;;;;;;22.03;10.47;;;16.80;99.90;;;;;;4974345;28;20692;-79
2022/10/29 04:59:23;;;;;;;16.40;9.53;;;16.70;99.90;;;;;;4974200;28;20253;-79
2022/10/29 05:01:49;;;;;;;22.57;9.83;;;16.70;99.90;;;;;;4974228;28;20181;-78
2022/10/29 05:04:14;;;;;;;22.10;10.83;;;16.70;99.90;;;;;;4974282;28;20182;-78
2022/10/29 05:06:40;;;;;;;17.50;9.27;;;16.70;99.90;;;;;;4974188;28;20181;-78
2022/10/29 05:09:06;;;;;;;24.63;10.40;;;16.70;99.90;;;;;;4974255;28;20174;-79
2022/10/29 05:11:31;;;;;;;16.83;9.37;;;16.80;99.90;;;;;;4974106;28;20182;-79
2022/10/29 05:13:57;;;;;;;13.50;8.90;;;16.70;99.90;;;;;;4974195;28;20300;-79
2022/10/29 05:16:22;;;;;;;20.90;9.80;;;16.70;99.90;;;;;;4974108;28;20178;-81
2022/10/29 05:18:48;;;;;;;18.80;8.60;;;16.70;99.90;;;;;;4974443;28;20530;-81
2022/10/29 05:21:13;;;;;;;18.93;10.07;;;16.70;99.90;;;;;;4974108;28;20173;-78
2022/10/29 05:23:39;;;;;;;22.60;11.87;;;16.70;99.90;;;;;;4973241;28;20170;-79
2022/10/29 05:26:05;;;;;;;18.70;9.30;;;16.70;99.90;;;;;;4973557;28;20193;-79
2022/10/29 05:28:30;;;;;;;15.73;9.13;;;16.80;99.90;;;;;;4972896;28;20170;-79
2022/10/29 05:31:00;;;;;;;15.27;9.60;;;16.80;99.90;;;;;;4972920;28;20225;-79
2022/10/29 05:33:25;;;;;;;22.73;9.10;;;16.80;99.90;;;;;;4972890;28;20226;-76
2022/10/29 05:35:51;;;;;;;16.23;9.93;;;16.80;99.90;;;;;;4972927;28;20428;-76
2022/10/29 05:38:17;;;;;;;20.87;10.57;;;16.80;99.90;;;;;;4973138;28;20229;-78
2022/10/29 05:40:43;;;;;;;18.67;10.77;;;16.80;99.90;;;;;;4973354;28;20202;-77
2022/10/29 05:43:11;;;;;;;15.23;8.83;;;16.90;99.90;;;;;;4972992;28;20219;-76
2022/10/29 05:45:36;;;;;;;19.93;9.47;;;16.90;99.90;;;;;;4972973;28;20467;-77
2022/10/29 05:48:03;;;;;;;23.13;9.33;;;16.90;99.90;;;;;;4973077;28;20456;-79
2022/10/29 05:50:30;;;;;;;17.13;9.40;;;16.90;99.90;;;;;;4972892;28;20205;-79
2022/10/29 05:53:00;;;;;;;17.47;10.00;;;16.90;99.90;;;;;;4972767;28;20544;-80
2022/10/29 05:55:30;;;;;;;18.57;9.27;;;16.90;99.90;;;;;;4972989;28;20916;-77
2022/10/29 05:57:57;;;;;;;13.00;9.30;;;16.90;99.90;;;;;;4971898;28;20530;-77
2022/10/29 06:00:23;;;;;;;24.23;10.00;;;16.90;99.90;;;;;;4974768;28;20508;-75
2022/10/29 06:02:49;;;;;;;26.60;10.03;;;16.90;99.90;;;;;;4976070;28;20417;-76
2022/10/29 06:05:14;;;;;;;15.17;8.17;;;16.90;99.90;;;;;;4975210;28;20449;-76
2022/10/29 06:07:40;;;;;;;24.27;9.70;;;16.90;99.90;;;;;;4976357;28;20174;-75
2022/10/29 06:10:06;;;;;;;18.20;11.03;;;16.90;99.90;;;;;;4976426;28;20740;-75
2022/10/29 06:12:32;;;;;;;17.20;10.43;;;17.00;99.90;;;;;;4958989;28;20604;-81
2022/10/29 06:14:58;;;;;;;18.47;10.67;;;17.00;99.90;;;;;;4976452;28;20464;-77
2022/10/29 06:17:23;;;;;;;17.47;9.30;;;17.00;99.90;;;;;;4976075;28;20186;-78
2022/10/29 06:19:49;;;;;;;15.53;8.30;;;17.00;99.90;;;;;;4976346;28;20488;-79
2022/10/29 06:22:15;;;;;;;16.13;9.20;;;17.10;99.90;;;;;;4976639;28;20174;-79
2022/10/29 06:24:40;;;;;;;18.63;8.17;;;17.00;99.90;;;;;;4976533;28;20177;-80
2022/10/29 06:27:06;;;;;;;12.17;8.60;;;17.10;99.90;;;;;;4976311;28;20181;-77
2022/10/29 06:29:31;;;;;;;15.80;9.73;;;17.10;99.90;;;;;;4975980;28;20174;-78
2022/10/29 06:31:57;;;;;;;18.73;8.40;;;17.10;99.90;;;;;;4975667;28;20283;-76
2022/10/29 06:34:22;;;;;;;18.10;8.80;;;17.10;99.90;;;;;;4975831;28;20189;-77
2022/10/29 06:36:48;;;;;;;28.60;10.40;;;17.10;99.90;;;;;;4975972;28;20178;-78
2022/10/29 06:39:13;;;;;;;25.13;9.60;;;17.20;99.90;;;;;;4975943;28;20178;-78
2022/10/29 06:41:39;;;;;;;21.97;9.17;;;17.20;99.90;;;;;;4975931;28;20176;-76
2022/10/29 06:44:04;;;;;;;18.03;8.83;;;17.20;99.90;;;;;;4975664;28;20249;-85
2022/10/29 06:46:30;;;;;;;15.40;9.50;;;17.20;99.90;;;;;;4975592;28;20612;-77
2022/10/29 06:48:55;;;;;;;17.97;9.23;;;17.20;99.90;;;;;;4975968;28;20181;-78
2022/10/29 06:51:24;;;;;;;22.73;9.83;;;17.20;99.90;;;;;;4975913;28;20184;-79
2022/10/29 06:53:49;;;;;;;15.90;9.00;;;17.20;99.90;;;;;;4975692;28;20628;-80
2022/10/29 06:56:15;;;;;;;18.87;9.70;;;17.20;99.90;;;;;;4976268;28;20426;-76
2022/10/29 06:58:40;;;;;;;19.70;9.23;;;17.20;99.90;;;;;;4976098;28;20181;-75
2022/10/29 07:01:06;;;;;;;13.80;8.27;;;17.30;99.90;;;;;;4976079;28;20178;-80
2022/10/29 07:03:31;;;;;;;18.83;8.93;;;17.30;99.90;;;;;;4976384;28;20170;-78
2022/10/29 07:05:58;;;;;;;19.13;10.03;;;17.30;99.90;;;;;;4976482;28;20174;-80
2022/10/29 07:08:25;;;;;;;26.13;9.97;;;17.40;99.90;;;;;;4975781;28;20186;-74
2022/10/29 07:10:52;;;;;;;17.80;7.87;;;17.40;99.90;;;;;;4976903;28;20432;-75
2022/10/29 07:13:17;;;;;;;25.13;8.47;;;17.40;99.90;;;;;;4979131;28;20479;-77
2022/10/29 07:15:43;;;;;;;18.17;7.37;;;17.40;99.90;;;;;;4979794;28;20421;-77
2022/10/29 07:18:09;;;;;;;14.33;8.50;;;17.50;99.90;;;;;;4979715;28;20240;-75
2022/10/29 07:20:44;;;;;;;19.20;9.27;;;17.50;99.90;;;;;;4978974;28;20205;-80
2022/10/29 07:23:13;;;;;;;14.30;9.17;;;17.60;99.90;;;;;;4980477;28;20436;-79
2022/10/29 07:25:40;;;;;;;19.63;7.37;;;17.60;99.90;;;;;;4980195;28;20457;-77
2022/10/29 07:28:09;;;;;;;19.20;7.30;;;17.60;99.90;;;;;;4979434;28;20858;-78
2022/10/29 07:30:35;;;;;;;16.10;7.87;;;17.70;99.90;;;;;;4958262;28;20432;-80
2022/10/29 07:33:01;;;;;;;19.37;7.50;;;17.70;99.90;;;;;;4976232;28;20833;-81
2022/10/29 07:35:26;;;;;;;17.27;8.10;;;17.70;99.90;;;;;;4975185;28;20228;-80
2022/10/29 07:37:57;;;;;;;22.30;8.27;;;17.80;99.90;;;;;;4957299;28;20231;-78
2022/10/29 07:40:23;;;;;;;17.80;9.03;;;17.80;99.90;;;;;;4974360;28;20519;-77
2022/10/29 07:42:51;;;;;;;16.27;8.03;;;17.80;99.90;;;;;;4974521;28;20576;-80
2022/10/29 07:45:17;;;;;;;17.10;7.30;;;17.90;99.90;;;;;;4969257;28;20174;-80
2022/10/29 07:47:42;;;;;;;21.43;7.47;;;17.90;99.90;;;;;;4974352;28;20479;-79
2022/10/29 07:50:08;;;;;;;13.90;7.10;;;18.00;99.90;;;;;;4973881;28;20305;-76
2022/10/29 07:52:34;;;;;;;14.63;7.40;;;18.00;99.90;;;;;;4973777;28;20250;-78
2022/10/29 07:55:01;;;;;;;13.20;6.80;;;18.10;99.90;;;;;;4974255;28;20189;-78
2022/10/29 07:57:27;;;;;;;17.50;7.77;;;18.20;99.90;;;;;;4973140;28;20184;-82
2022/10/29 07:59:52;;;;;;;19.40;7.70;;;18.20;99.90;;;;;;4973925;28;20425;-80
2022/10/29 08:02:18;;;;;;;16.30;7.00;;;18.20;99.90;;;;;;4973936;28;20178;-80
2022/10/29 08:04:44;;;;;;;14.30;7.07;;;18.30;99.90;;;;;;4973875;28;20547;-83
2022/10/29 08:07:09;;;;;;;21.33;7.30;;;18.30;99.90;;;;;;4974117;28;20209;-79
2022/10/29 08:09:35;;;;;;;14.20;6.07;;;18.40;99.90;;;;;;4974150;28;20723;-78
2022/10/29 08:12:00;;;;;;;12.93;7.07;;;18.50;99.90;;;;;;4973996;28;20676;-77
2022/10/29 08:14:26;;;;;;;15.70;5.93;;;18.60;99.90;;;;;;4973891;28;20591;-78
2022/10/29 08:16:55;;;;;;;11.97;5.83;;;18.70;99.90;;;;;;4974114;28;20166;-77
2022/10/29 08:19:21;;;;;;;14.07;6.80;;;18.80;99.90;;;;;;4973835;28;20189;-78
2022/10/29 08:21:47;;;;;;;12.23;6.93;;;19.00;99.90;;;;;;4973681;28;20425;-79
2022/10/29 08:24:12;;;;;;;17.00;7.10;;;19.00;99.90;;;;;;4973642;28;20484;-79
2022/10/29 08:26:38;;;;;;;11.93;6.57;;;19.10;99.90;;;;;;4973984;28;20290;-80
2022/10/29 08:29:04;;;;;;;12.77;6.27;;;19.10;99.90;;;;;;4974059;28;20177;-77
2022/10/29 08:31:29;;;;;;;14.03;7.40;;;19.10;99.90;;;;;;4973423;28;20232;-78
2022/10/29 08:33:55;;;;;;;15.07;7.30;;;19.10;99.90;;;;;;4973490;28;20221;-76
2022/10/29 08:36:20;;;;;;;17.50;7.90;;;19.10;99.90;;;;;;4973196;28;20185;-80
2022/10/29 08:38:46;;;;;;;28.27;7.57;;;19.10;99.90;;;;;;4973893;28;20592;-79
2022/10/29 08:41:21;;;;;;;18.93;7.47;;;19.20;99.90;;;;;;4973515;28;20240;-81
2022/10/29 08:44:00;;;;;;;19.50;6.73;;;19.20;99.90;;;;;;4973479;28;20432;-76
2022/10/29 08:46:32;;;;;;;8.60;7.00;;;19.20;99.90;;;;;;4973319;28;20431;-74
2022/10/29 08:49:03;;;;;;;9.70;5.50;;;19.20;99.90;;;;;;4973396;28;20425;-74
2022/10/29 08:51:37;;;;;;;14.23;6.47;;;19.30;99.90;;;;;;4973164;28;20417;-79
2022/10/29 08:54:03;;;;;;;12.37;6.40;;;19.30;99.90;;;;;;4972958;28;20564;-73
2022/10/29 08:56:34;;;;;;;14.03;6.67;;;19.40;99.90;;;;;;4972868;28;20448;-74
2022/10/29 08:59:12;;;;;;;15.00;5.83;;;19.50;99.90;;;;;;4971172;28;20464;-74
2022/10/29 09:01:38;;;;;;;14.80;5.57;;;19.60;99.90;;;;;;4972311;28;20421;-74
2022/10/29 09:04:23;;;;;;;13.57;6.70;;;19.70;99.90;;;;;;4973026;28;20781;-72
2022/10/29 09:07:09;;;;;;;10.67;5.53;;;19.80;99.90;;;;;;4972010;28;20649;-74
2022/10/29 09:09:44;;;;;;;13.47;5.70;;;19.80;99.90;;;;;;4955756;28;20935;-73
2022/10/29 09:12:24;;;;;;;11.53;5.83;;;19.80;99.90;;;;;;4973037;28;20970;-72
2022/10/29 09:15:11;;;;;;;10.53;6.17;;;19.90;99.90;;;;;;4973095;28;20433;-74
2022/10/29 09:17:49;;;;;;;15.63;5.23;;;20.10;99.90;;;;;;4973246;28;20775;-74
2022/10/29 09:20:22;;;;;;;11.40;5.37;;;20.10;99.90;;;;;;4973243;28;20500;-73
2022/10/29 09:22:59;;;;;;;9.77;5.57;;;20.20;99.90;;;;;;4972973;28;20433;-72
2022/10/29 09:25:32;;;;;;;18.67;5.67;;;20.30;99.90;;;;;;4972907;28;20618;-74
2022/10/29 09:28:28;;;;;;;19.77;6.60;;;20.30;99.90;;;;;;4973312;28;20436;-74
2022/10/29 09:30:58;;;;;;;16.27;5.87;;;20.50;99.90;;;;;;4973010;28;20817;-75
2022/10/29 09:33:25;;;;;;;16.77;6.80;;;20.60;99.90;;;;;;4972452;28;20473;-78
2022/10/29 09:35:57;;;;;;;14.17;5.73;;;20.70;99.90;;;;;;4972505;28;20440;-80
2022/10/29 09:38:42;;;;;;;11.70;5.60;;;20.80;99.90;;;;;;4976775;28;20952;-79
2022/10/29 09:41:10;;;;;;;9.97;5.10;;;20.80;99.90;;;;;;4976992;28;20428;-91
2022/10/29 09:43:53;;;;;;;11.83;5.13;;;20.90;99.90;;;;;;4977138;28;20433;-92
2022/10/29 09:46:34;;;;;;;10.87;5.53;;;20.90;99.90;;;;;;4977965;28;20774;-87
2022/10/29 09:49:31;;;;;;;14.83;5.70;;;20.90;99.90;;;;;;4977316;28;20790;-92
2022/10/29 09:52:18;;;;;;;10.50;4.80;;;21.10;99.90;;;;;;4977299;28;20928;-80
2022/10/29 09:54:44;;;;;;;10.70;4.80;;;21.10;99.90;;;;;;4976517;28;20429;-79
2022/10/29 09:57:20;;;;;;;10.23;5.10;;;21.10;99.90;;;;;;4976528;28;20421;-80
2022/10/29 09:59:54;;;;;;;13.43;4.67;;;21.30;99.90;;;;;;4976418;28;20912;-79
2022/10/29 10:02:29;;;;;;;13.70;4.00;;;21.30;99.90;;;;;;4975970;28;20435;-76
2022/10/29 10:04:59;;;;;;;14.40;5.27;;;21.30;99.90;;;;;;4977050;28;20428;-77
2022/10/29 10:07:25;;;;;;;14.33;4.40;;;21.30;99.90;;;;;;4976899;28;20429;-77
2022/10/29 10:09:52;;;;;;;16.90;5.40;;;21.30;99.90;;;;;;4976920;28;20480;-76
2022/10/29 10:12:19;;;;;;;10.67;4.77;;;21.30;99.90;;;;;;4977019;28;20213;-74
2022/10/29 10:14:46;;;;;;;23.83;5.50;;;21.40;99.90;;;;;;4976974;28;20425;-75
2022/10/29 10:17:12;;;;;;;16.23;5.03;;;21.40;99.90;;;;;;4976562;28;20444;-74
2022/10/29 10:19:47;;;;;;;13.77;5.37;;;21.50;99.90;;;;;;4976938;28;20421;-73
2022/10/29 10:22:19;;;;;;;12.30;4.73;;;21.60;99.90;;;;;;4976818;28;20429;-70
2022/10/29 10:24:44;;;;;;;10.63;4.60;;;21.70;99.90;;;;;;4976831;28;20939;-71
2022/10/29 10:27:16;;;;;;;15.97;5.77;;;21.80;99.90;;;;;;4976717;28;20505;-71
2022/10/29 10:29:41;;;;;;;10.83;4.60;;;21.80;99.90;;;;;;4976830;28;20177;-71
2022/10/29 10:32:07;;;;;;;19.23;6.33;;;21.90;99.90;;;;;;4976428;28;21051;-71
2022/10/29 10:34:33;;;;;;;11.63;4.90;;;22.00;99.90;;;;;;4976589;28;20205;-71
2022/10/29 10:37:05;;;;;;;17.40;5.83;;;22.10;99.90;;;;;;4975426;28;20465;-71
2022/10/29 10:39:57;;;;;;;12.80;5.53;;;22.20;99.90;;;;;;4975578;28;20827;-71
2022/10/29 10:42:27;;;;;;;33.00;6.50;;;22.20;99.90;;;;;;4975136;28;20433;-72
2022/10/29 10:44:59;;;;;;;12.80;5.97;;;22.30;99.90;;;;;;4976160;28;20908;-71
2022/10/29 10:47:30;;;;;;;15.00;6.77;;;22.30;99.90;;;;;;4975855;28;20992;-71
2022/10/29 10:50:26;;;;;;;17.13;5.73;;;22.30;99.90;;;;;;4976367;28;20437;-70
2022/10/29 10:52:53;;;;;;;11.00;5.90;;;22.40;99.90;;;;;;4976289;28;20519;-70
2022/10/29 10:55:29;;;;;;;9.53;4.60;;;22.40;99.90;;;;;;4976262;28;20439;-71
2022/10/29 10:58:01;;;;;;;11.17;5.10;;;22.50;99.90;;;;;;4976223;28;20437;-71
2022/10/29 11:00:31;;;;;;;12.23;6.50;;;22.70;99.90;;;;;;4976009;28;20455;-71
2022/10/29 11:03:15;;;;;;;11.87;5.97;;;22.80;99.90;;;;;;4976162;28;20433;-68
2022/10/29 11:05:55;;;;;;;16.50;5.00;;;22.90;99.90;;;;;;4972671;28;20455;-73
2022/10/29 11:08:47;;;;;;;13.50;5.40;;;22.80;99.90;;;;;;4975671;28;20436;-73
2022/10/29 11:11:12;;;;;;;12.13;5.20;;;22.70;99.90;;;;;;4966781;28;20441;-75
2022/10/29 11:13:40;;;;;;;12.77;5.00;;;22.70;99.90;;;;;;4975570;28;20572;-75
2022/10/29 11:16:15;;;;;;;13.57;5.40;;;22.80;99.90;;;;;;4975481;28;20192;-75
2022/10/29 11:19:03;;;;;;;15.13;5.70;;;22.70;99.90;;;;;;4960540;28;20503;-75
2022/10/29 11:21:54;;;;;;;14.60;5.60;;;22.60;99.90;;;;;;4975262;28;20495;-75
2022/10/29 11:24:41;;;;;;;11.60;4.70;;;22.60;99.90;;;;;;4973342;28;20516;-75
2022/10/29 11:27:24;;;;;;;10.07;4.17;;;22.70;99.90;;;;;;4975392;28;20768;-75
2022/10/29 11:30:17;;;;;;;10.93;5.20;;;22.80;99.90;;;;;;4975341;28;20432;-75
2022/10/29 11:32:52;;;;;;;13.43;5.83;;;22.70;99.90;;;;;;4967447;28;20564;-75
2022/10/29 11:35:42;;;;;;;11.80;6.20;;;22.70;99.90;;;;;;4973137;28;20511;-75
2022/10/29 11:38:27;;;;;;;16.53;5.57;;;22.80;99.90;;;;;;4974556;28;20437;-75
2022/10/29 11:41:15;;;;;;;15.43;4.30;;;23.00;99.90;;;;;;4973239;28;20790;-75
2022/10/29 11:43:41;;;;;;;9.37;4.80;;;23.20;99.90;;;;;;4974158;28;20428;-75
2022/10/29 11:46:50;;;;;;;14.53;5.10;;;23.30;99.90;;;;;;4974942;28;20440;-75
2022/10/29 11:49:59;;;;;;;9.70;4.07;;;23.50;99.90;;;;;;4954803;28;20582;-75
2022/10/29 12:20:20;;;;;;;19.70;5.60;;;22.90;99.90;;;;;;5057367;28;20943;-77
2022/10/29 12:22:59;;;;;;;12.80;5.10;;;22.90;99.90;;;;;;5050342;28;21853;-83
2022/10/29 12:25:52;;;;;;;8.30;5.70;;;23.00;99.90;;;;;;5051737;28;20861;-79
2022/10/29 12:28:43;;;;;;;28.30;4.87;;;23.00;99.90;;;;;;5050627;28;20928;-78
2022/10/29 12:31:17;;;;;;;10.40;3.90;;;23.10;99.90;;;;;;5051111;28;20421;-82
2022/10/29 12:34:07;;;;;;;15.33;5.50;;;23.10;99.90;;;;;;5051170;28;20449;-79
2022/10/29 12:36:41;;;;;;;10.50;4.73;;;23.10;99.90;;;;;;5055938;28;20514;-80
2022/10/29 12:39:17;;;;;;;10.50;5.77;;;23.10;99.90;;;;;;5051047;28;20461;-82
2022/10/29 12:41:46;;;;;;;15.73;5.17;;;23.20;99.90;;;;;;5051339;28;20463;-82
2022/10/29 12:44:21;;;;;;;10.40;5.10;;;23.10;99.90;;;;;;5048832;28;20445;-83
2022/10/29 12:46:52;;;;;;;9.77;4.47;;;23.10;99.90;;;;;;5051697;28;20505;-81
2022/10/29 12:49:21;;;;;;;21.10;5.57;;;23.10;99.90;;;;;;5050802;28;20432;-82
2022/10/29 12:52:08;;;;;;;9.77;5.17;;;23.10;99.90;;;;;;5049542;28;20434;-81
2022/10/29 12:54:40;;;;;;;22.13;5.10;;;23.10;99.90;;;;;;5053004;28;20436;-78
2022/10/29 12:57:12;;;;;;;11.60;6.00;;;23.10;99.90;;;;;;5050374;28;20438;-77
2022/10/29 12:59:38;;;;;;;13.57;5.43;;;23.10;99.90;;;;;;5050619;28;20468;-77
2022/10/29 13:02:17;;;;;;;9.00;4.53;;;23.10;99.90;;;;;;5050701;28;20433;-81
2022/10/29 13:05:04;;;;;;;10.83;4.40;;;23.10;99.90;;;;;;5049815;28;20884;-84
2022/10/29 13:07:31;;;;;;;7.10;4.00;;;23.10;99.90;;;;;;5048483;28;20413;-81
2022/10/29 13:10:21;;;;;;;10.50;4.67;;;23.10;99.90;;;;;;5049836;28;20859;-79
2022/10/29 13:12:55;;;;;;;10.93;6.70;;;23.10;99.90;;;;;;5048228;28;20426;-78
2022/10/29 13:15:42;;;;;;;12.00;4.90;;;23.10;99.90;;;;;;5048783;28;20422;-77
2022/10/29 13:18:11;;;;;;;19.67;5.83;;;23.10;99.90;;;;;;5046006;28;20465;-79
2022/10/29 13:20:40;;;;;;;14.10;5.00;;;23.10;99.90;;;;;;5045955;28;20499;-69
2022/10/29 13:23:27;;;;;;;15.07;5.13;;;23.20;99.90;;;;;;5049456;28;20896;-82
2022/10/29 13:25:58;;;;;;;10.43;4.23;;;23.20;99.90;;;;;;5045604;28;20511;-86
2022/10/29 13:28:23;;;;;;;12.43;4.47;;;23.30;99.90;;;;;;5049471;28;20436;-81
2022/10/29 13:30:50;;;;;;;9.67;4.00;;;23.40;99.90;;;;;;5057128;28;20491;-82
2022/10/29 13:33:19;;;;;;;15.63;4.87;;;23.40;99.90;;;;;;5044267;28;20305;-79
2022/10/29 13:36:06;;;;;;;16.07;4.93;;;23.40;99.90;;;;;;5047801;28;20951;-80
2022/10/29 13:38:43;;;;;;;15.27;4.60;;;23.40;99.90;;;;;;5038147;28;20503;-83
2022/10/29 13:41:23;;;;;;;15.70;4.17;;;23.30;99.90;;;;;;5046191;28;20511;-82
2022/10/29 13:44:00;;;;;;;13.30;4.83;;;23.40;99.90;;;;;;5034599;28;20438;-82
2022/10/29 13:46:59;;;;;;;10.57;4.57;;;23.30;99.90;;;;;;5051160;28;20565;-83
2022/10/29 13:49:43;;;;;;;10.70;6.07;;;23.40;99.90;;;;;;5044944;28;20472;-82
2022/10/29 13:52:17;;;;;;;8.57;4.80;;;23.40;99.90;;;;;;5038095;28;20422;-82
2022/10/29 13:54:59;;;;;;;12.77;4.33;;;23.40;99.90;;;;;;5015289;28;20435;-80
2022/10/29 13:57:27;;;;;;;15.07;5.17;;;23.40;99.90;;;;;;5013709;28;20431;-81
2022/10/29 14:00:05;;;;;;;7.50;4.33;;;23.50;99.90;;;;;;5042508;28;20453;-80
2022/10/29 14:02:38;;;;;;;9.17;3.83;;;23.50;99.90;;;;;;5038207;28;20426;-80
2022/10/29 14:05:22;;;;;;;11.83;4.17;;;23.50;99.90;;;;;;5050688;28;20937;-80
2022/10/29 14:08:06;;;;;;;8.20;4.67;;;23.50;99.90;;;;;;5037383;28;20439;-80
2022/10/29 14:10:41;;;;;;;16.83;4.97;;;23.50;99.90;;;;;;5019919;28;20489;-79
2022/10/29 14:13:14;;;;;;;13.43;4.53;;;23.50;99.90;;;;;;5054850;28;21162;-78
2022/10/29 14:16:04;;;;;;;13.43;4.87;;;23.50;99.90;;;;;;5055576;28;20432;-78
2022/10/29 14:18:49;;;;;;;13.07;4.57;;;23.50;99.90;;;;;;5040778;28;20466;-78
2022/10/29 14:21:26;;;;;;;10.30;5.23;;;23.40;99.90;;;;;;5033814;28;20434;-78
2022/10/29 14:23:54;;;;;;;10.30;5.93;;;23.40;99.90;;;;;;5038206;28;20479;-78
2022/10/29 14:26:20;;;;;;;13.43;5.50;;;23.30;99.90;;;;;;5054722;28;20783;-78
2022/10/29 14:28:45;;;;;;;15.53;5.33;;;23.30;99.90;;;;;;5054585;28;20422;-80
2022/10/29 14:31:14;;;;;;;10.70;4.80;;;23.40;99.90;;;;;;5053399;28;20179;-80
2022/10/29 14:33:50;;;;;;;21.17;5.60;;;23.40;99.90;;;;;;5034903;28;20179;-71
2022/10/29 14:36:25;;;;;;;10.80;5.50;;;23.40;99.90;;;;;;5035415;28;20441;-71
2022/10/29 14:38:56;;;;;;;18.77;6.63;;;23.50;99.90;;;;;;5031950;28;20589;-70
2022/10/29 14:41:23;;;;;;;13.13;5.00;;;23.60;99.90;;;;;;5032727;28;20517;-71
2022/10/29 14:44:08;;;;;;;16.07;4.47;;;23.60;99.90;;;;;;5033577;28;20547;-71
2022/10/29 14:46:36;;;;;;;15.43;5.03;;;23.70;99.90;;;;;;5032133;28;20792;-71
2022/10/29 14:49:18;;;;;;;11.93;5.50;;;23.70;99.90;;;;;;5033074;28;20800;-71
2022/10/29 14:52:00;;;;;;;9.97;4.23;;;23.70;99.90;;;;;;5033921;28;20434;-71
2022/10/29 14:54:36;;;;;;;15.00;5.03;;;23.70;99.90;;;;;;5030603;28;20438;-71
2022/10/29 14:57:06;;;;;;;6.33;4.50;;;23.60;99.90;;;;;;5033495;28;20430;-71
2022/10/29 14:59:34;;;;;;;12.80;5.33;;;23.60;99.90;;;;;;5029482;28;20855;-71
2022/10/29 15:02:02;;;;;;;8.97;3.30;;;23.50;99.90;;;;;;5033102;28;20426;-71
2022/10/29 15:04:30;;;;;;;12.40;5.37;;;23.50;99.90;;;;;;5033301;28;20445;-71
2022/10/29 15:07:35;;;;;;;10.87;5.17;;;23.40;99.90;;;;;;5032531;28;20433;-71
2022/10/29 15:10:15;;;;;;;10.70;4.20;;;23.30;99.90;;;;;;5031240;28;20438;-71
2022/10/29 15:12:40;;;;;;;12.00;4.63;;;23.20;99.90;;;;;;5031648;28;20799;-71
2022/10/29 15:15:27;;;;;;;12.23;4.53;;;23.10;99.90;;;;;;5033533;28;20430;-71
2022/10/29 15:18:25;;;;;;;9.80;4.63;;;23.00;99.90;;;;;;5032477;28;20304;-71
2022/10/29 15:20:53;;;;;;;10.90;5.00;;;22.90;99.90;;;;;;5015236;28;20426;-72
2022/10/29 15:23:26;;;;;;;9.03;5.10;;;22.90;99.90;;;;;;5030958;28;20430;-72
2022/10/29 15:25:59;;;;;;;15.73;5.37;;;22.90;99.90;;;;;;5033387;28;20979;-72
2022/10/29 15:28:28;;;;;;;7.57;4.60;;;22.90;99.90;;;;;;5033205;28;20426;-72
2022/10/29 15:30:54;;;;;;;12.10;4.90;;;22.80;99.90;;;;;;5033096;28;20496;-72
2022/10/29 15:33:24;;;;;;;11.20;5.23;;;22.70;99.90;;;;;;5033117;28;20418;-71
2022/10/29 15:35:57;;;;;;;11.03;4.80;;;22.60;99.90;;;;;;5033326;28;20266;-76
2022/10/29 15:38:29;;;;;;;14.30;5.03;;;22.50;99.90;;;;;;5033396;28;20804;-76
2022/10/29 15:41:07;;;;;;;12.07;6.00;;;22.50;99.90;;;;;;5033218;28;20484;-76
2022/10/29 15:43:33;;;;;;;10.10;5.30;;;22.40;99.90;;;;;;5033096;28;20438;-76
2022/10/29 15:45:59;;;;;;;14.73;5.73;;;22.40;99.90;;;;;;5033034;28;20423;-76
2022/10/29 15:48:25;;;;;;;11.43;4.83;;;22.30;99.90;;;;;;5032801;28;20492;-76
2022/10/29 15:50:50;;;;;;;8.60;5.40;;;22.20;99.90;;;;;;5033152;28;20438;-76
2022/10/29 15:53:16;;;;;;;14.60;5.47;;;22.20;99.90;;;;;;5032967;28;20172;-76
2022/10/29 15:55:42;;;;;;;14.93;6.20;;;22.20;99.90;;;;;;5033362;28;20270;-76
2022/10/29 15:58:15;;;;;;;10.63;5.23;;;22.20;99.90;;;;;;5033132;28;20204;-85
2022/10/29 16:00:41;;;;;;;16.57;6.20;;;22.20;99.90;;;;;;5033461;28;20507;-85
2022/10/29 16:03:16;;;;;;;14.23;5.60;;;22.10;99.90;;;;;;5031576;28;20409;-77
2022/10/29 16:05:43;;;;;;;14.03;7.10;;;22.10;99.90;;;;;;5038055;28;20535;-76
2022/10/29 16:08:41;;;;;;;11.23;6.43;;;22.10;99.90;;;;;;5051637;28;20429;-77
2022/10/29 16:11:12;;;;;;;12.63;5.00;;;22.00;99.90;;;;;;5040186;28;20425;-73
2022/10/29 16:13:37;;;;;;;9.73;4.80;;;22.10;99.90;;;;;;5041561;28;20418;-72
2022/10/29 16:16:03;;;;;;;10.57;4.87;;;22.10;99.90;;;;;;5032956;28;21833;-80
2022/10/29 16:18:29;;;;;;;13.33;5.07;;;22.00;99.90;;;;;;5030526;28;20247;-79
2022/10/29 16:21:00;;;;;;;9.27;4.73;;;22.00;99.90;;;;;;5032822;28;20954;-81
2022/10/29 16:23:26;;;;;;;12.17;4.87;;;22.00;99.90;;;;;;5033383;28;20225;-78
2022/10/29 16:25:52;;;;;;;13.10;5.50;;;21.90;99.90;;;;;;5032626;28;20836;-76
2022/10/29 16:28:17;;;;;;;12.90;4.40;;;21.90;99.90;;;;;;5032961;28;20172;-78